sensor_id;sensor_type;location;lat;lon;timestamp;temperature;humidity
702;DHT22;334;48.808;9.222;2023-04-15T00:00:12;10.90;1.00
702;DHT22;334;48.808;9.222;2023-04-15T00:01:14;10.90;1.00
702;DHT22;334;48.808;9.222;2023-04-15T00:02:20;10.90;1.00
702;DHT22;334;48.808;9.222;2023-04-15T00:03:22;10.90;1.00
702;DHT22;334;48.808;9.222;2023-04-15T00:04:26;10.90;1.00
702;DHT22;334;48.808;9.222;2023-04-15T00:05:29;10.90;1.00
702;DHT22;334;48.808;9.222;2023-04-15T00:06:31;10.90;1.00
702;DHT22;334;48.808;9.222;2023-04-15T00:07:33;10.90;1.00
702;DHT22;334;48.808;9.222;2023-04-15T00:08:36;10.90;1.00
702;DHT22;334;48.808;9.222;2023-04-15T00:09:38;10.90;1.00
702;DHT22;334;48.808;9.222;2023-04-15T00:10:40;10.90;1.00
702;DHT22;334;48.808;9.222;2023-04-15T00:11:44;10.80;1.00
702;DHT22;334;48.808;9.222;2023-04-15T00:12:47;10.80;1.00
702;DHT22;334;48.808;9.222;2023-04-15T00:13:49;10.80;1.00
702;DHT22;334;48.808;9.222;2023-04-15T00:14:52;10.80;1.00
702;DHT22;334;48.808;9.222;2023-04-15T00:15:53;10.80;1.00
702;DHT22;334;48.808;9.222;2023-04-15T00:16:58;10.80;1.00
702;DHT22;334;48.808;9.222;2023-04-15T00:18:00;10.80;1.00
702;DHT22;334;48.808;9.222;2023-04-15T00:19:03;10.80;1.00
702;DHT22;334;48.808;9.222;2023-04-15T00:20:05;10.80;1.00
702;DHT22;334;48.808;9.222;2023-04-15T00:21:07;10.70;1.00
702;DHT22;334;48.808;9.222;2023-04-15T00:22:10;10.70;1.00
702;DHT22;334;48.808;9.222;2023-04-15T00:23:12;10.70;1.00
702;DHT22;334;48.808;9.222;2023-04-15T00:24:14;10.70;1.00
702;DHT22;334;48.808;9.222;2023-04-15T00:25:17;10.70;1.00
702;DHT22;334;48.808;9.222;2023-04-15T00:26:19;10.60;1.00
702;DHT22;334;48.808;9.222;2023-04-15T00:27:21;10.60;1.00
702;DHT22;334;48.808;9.222;2023-04-15T00:28:23;10.60;1.00
702;DHT22;334;48.808;9.222;2023-04-15T00:29:25;10.60;1.00
702;DHT22;334;48.808;9.222;2023-04-15T00:30:27;10.60;1.00
702;DHT22;334;48.808;9.222;2023-04-15T00:31:29;10.60;1.00
702;DHT22;334;48.808;9.222;2023-04-15T00:32:31;10.60;1.00
702;DHT22;334;48.808;9.222;2023-04-15T00:33:33;10.60;1.00
702;DHT22;334;48.808;9.222;2023-04-15T00:34:37;10.60;1.00
702;DHT22;334;48.808;9.222;2023-04-15T00:35:39;10.60;1.00
702;DHT22;334;48.808;9.222;2023-04-15T00:36:41;10.50;1.00
702;DHT22;334;48.808;9.222;2023-04-15T00:37:43;10.50;1.00
702;DHT22;334;48.808;9.222;2023-04-15T00:38:47;10.60;1.00
702;DHT22;334;48.808;9.222;2023-04-15T00:39:48;10.60;1.00
702;DHT22;334;48.808;9.222;2023-04-15T00:40:51;10.60;1.00
702;DHT22;334;48.808;9.222;2023-04-15T00:41:54;10.60;1.00
702;DHT22;334;48.808;9.222;2023-04-15T00:42:56;10.60;1.00
702;DHT22;334;48.808;9.222;2023-04-15T00:43:58;10.50;1.00
702;DHT22;334;48.808;9.222;2023-04-15T00:45:01;10.60;1.00
702;DHT22;334;48.808;9.222;2023-04-15T00:46:04;10.60;1.00
702;DHT22;334;48.808;9.222;2023-04-15T00:47:06;10.60;1.00
702;DHT22;334;48.808;9.222;2023-04-15T00:48:10;10.60;1.00
702;DHT22;334;48.808;9.222;2023-04-15T00:49:12;10.60;1.00
702;DHT22;334;48.808;9.222;2023-04-15T00:50:14;10.50;1.00
702;DHT22;334;48.808;9.222;2023-04-15T00:51:16;10.50;1.00
702;DHT22;334;48.808;9.222;2023-04-15T00:52:18;10.50;1.00
702;DHT22;334;48.808;9.222;2023-04-15T00:53:19;10.50;1.00
702;DHT22;334;48.808;9.222;2023-04-15T00:54:21;10.50;1.00
702;DHT22;334;48.808;9.222;2023-04-15T00:55:23;10.50;1.00
702;DHT22;334;48.808;9.222;2023-04-15T00:56:26;10.40;1.00
702;DHT22;334;48.808;9.222;2023-04-15T00:57:29;10.40;1.00
702;DHT22;334;48.808;9.222;2023-04-15T00:58:32;10.40;1.00
702;DHT22;334;48.808;9.222;2023-04-15T00:59:34;10.40;1.00
702;DHT22;334;48.808;9.222;2023-04-15T01:00:36;10.40;1.00
702;DHT22;334;48.808;9.222;2023-04-15T01:01:39;10.40;1.00
702;DHT22;334;48.808;9.222;2023-04-15T01:02:41;10.40;1.00
702;DHT22;334;48.808;9.222;2023-04-15T01:03:44;10.30;1.00
702;DHT22;334;48.808;9.222;2023-04-15T01:04:47;10.30;1.00
702;DHT22;334;48.808;9.222;2023-04-15T01:05:49;10.30;1.00
702;DHT22;334;48.808;9.222;2023-04-15T01:06:51;10.30;1.00
702;DHT22;334;48.808;9.222;2023-04-15T01:07:52;10.30;1.00
702;DHT22;334;48.808;9.222;2023-04-15T01:08:56;10.30;1.00
702;DHT22;334;48.808;9.222;2023-04-15T01:09:58;10.30;1.00
702;DHT22;334;48.808;9.222;2023-04-15T01:11:00;10.30;1.00
702;DHT22;334;48.808;9.222;2023-04-15T01:12:05;10.20;1.00
702;DHT22;334;48.808;9.222;2023-04-15T01:13:07;10.20;1.00
702;DHT22;334;48.808;9.222;2023-04-15T01:14:10;10.20;1.00
702;DHT22;334;48.808;9.222;2023-04-15T01:15:11;10.20;1.00
702;DHT22;334;48.808;9.222;2023-04-15T01:16:16;10.20;1.00
702;DHT22;334;48.808;9.222;2023-04-15T01:17:20;10.20;1.00
702;DHT22;334;48.808;9.222;2023-04-15T01:18:22;10.20;1.00
702;DHT22;334;48.808;9.222;2023-04-15T01:19:24;10.20;1.00
702;DHT22;334;48.808;9.222;2023-04-15T01:20:28;10.20;1.00
702;DHT22;334;48.808;9.222;2023-04-15T01:21:30;10.20;1.00
702;DHT22;334;48.808;9.222;2023-04-15T01:22:32;10.20;1.00
702;DHT22;334;48.808;9.222;2023-04-15T01:23:35;10.20;1.00
702;DHT22;334;48.808;9.222;2023-04-15T01:24:39;10.20;1.00
702;DHT22;334;48.808;9.222;2023-04-15T01:25:43;10.20;1.00
702;DHT22;334;48.808;9.222;2023-04-15T01:26:44;10.20;1.00
702;DHT22;334;48.808;9.222;2023-04-15T01:27:47;10.20;1.00
702;DHT22;334;48.808;9.222;2023-04-15T01:28:49;10.20;1.00
702;DHT22;334;48.808;9.222;2023-04-15T01:29:51;10.10;1.00
702;DHT22;334;48.808;9.222;2023-04-15T01:31:06;10.10;1.00
702;DHT22;334;48.808;9.222;2023-04-15T01:32:08;10.10;1.00
702;DHT22;334;48.808;9.222;2023-04-15T01:33:10;10.10;1.00
702;DHT22;334;48.808;9.222;2023-04-15T01:34:11;10.10;1.00
702;DHT22;334;48.808;9.222;2023-04-15T01:35:13;10.10;1.00
702;DHT22;334;48.808;9.222;2023-04-15T01:36:15;10.10;1.00
702;DHT22;334;48.808;9.222;2023-04-15T01:37:17;10.10;1.00
702;DHT22;334;48.808;9.222;2023-04-15T01:38:19;10.10;1.00
702;DHT22;334;48.808;9.222;2023-04-15T01:39:21;10.10;1.00
702;DHT22;334;48.808;9.222;2023-04-15T01:40:23;10.10;1.00
702;DHT22;334;48.808;9.222;2023-04-15T01:41:26;10.10;1.00
702;DHT22;334;48.808;9.222;2023-04-15T01:42:28;10.00;1.00
702;DHT22;334;48.808;9.222;2023-04-15T01:43:30;10.00;1.00
702;DHT22;334;48.808;9.222;2023-04-15T01:44:32;10.00;1.00
702;DHT22;334;48.808;9.222;2023-04-15T01:45:34;10.00;1.00
702;DHT22;334;48.808;9.222;2023-04-15T01:46:36;10.00;1.00
702;DHT22;334;48.808;9.222;2023-04-15T01:47:38;10.00;1.00
702;DHT22;334;48.808;9.222;2023-04-15T01:48:40;10.00;1.00
702;DHT22;334;48.808;9.222;2023-04-15T01:49:42;9.90;1.00
702;DHT22;334;48.808;9.222;2023-04-15T01:50:44;10.00;1.00
702;DHT22;334;48.808;9.222;2023-04-15T01:51:46;10.00;1.00
702;DHT22;334;48.808;9.222;2023-04-15T01:52:48;9.90;1.00
702;DHT22;334;48.808;9.222;2023-04-15T01:53:50;10.00;1.00
702;DHT22;334;48.808;9.222;2023-04-15T01:54:52;9.90;1.00
702;DHT22;334;48.808;9.222;2023-04-15T01:55:55;10.00;1.00
702;DHT22;334;48.808;9.222;2023-04-15T01:56:57;9.90;1.00
702;DHT22;334;48.808;9.222;2023-04-15T01:57:59;10.00;1.00
702;DHT22;334;48.808;9.222;2023-04-15T01:59:01;9.90;1.00
702;DHT22;334;48.808;9.222;2023-04-15T02:00:05;10.00;1.00
702;DHT22;334;48.808;9.222;2023-04-15T02:01:08;9.90;1.00
702;DHT22;334;48.808;9.222;2023-04-15T02:02:12;9.90;1.00
702;DHT22;334;48.808;9.222;2023-04-15T02:03:14;9.90;1.00
702;DHT22;334;48.808;9.222;2023-04-15T02:04:15;9.90;1.00
702;DHT22;334;48.808;9.222;2023-04-15T02:05:17;9.90;1.00
702;DHT22;334;48.808;9.222;2023-04-15T02:06:19;9.90;1.00
702;DHT22;334;48.808;9.222;2023-04-15T02:07:21;9.90;1.00
702;DHT22;334;48.808;9.222;2023-04-15T02:08:24;9.90;1.00
702;DHT22;334;48.808;9.222;2023-04-15T02:09:26;9.80;1.00
702;DHT22;334;48.808;9.222;2023-04-15T02:10:27;9.80;1.00
702;DHT22;334;48.808;9.222;2023-04-15T02:11:29;9.80;1.00
702;DHT22;334;48.808;9.222;2023-04-15T02:12:31;9.80;1.00
702;DHT22;334;48.808;9.222;2023-04-15T02:13:33;9.80;1.00
702;DHT22;334;48.808;9.222;2023-04-15T02:14:35;9.70;1.00
702;DHT22;334;48.808;9.222;2023-04-15T02:15:36;9.70;1.00
702;DHT22;334;48.808;9.222;2023-04-15T02:16:38;9.70;1.00
702;DHT22;334;48.808;9.222;2023-04-15T02:17:40;9.70;1.00
702;DHT22;334;48.808;9.222;2023-04-15T02:18:46;9.70;1.00
702;DHT22;334;48.808;9.222;2023-04-15T02:19:48;9.70;1.00
702;DHT22;334;48.808;9.222;2023-04-15T02:20:51;9.70;1.00
702;DHT22;334;48.808;9.222;2023-04-15T02:21:53;9.70;1.00
702;DHT22;334;48.808;9.222;2023-04-15T02:22:54;9.70;1.00
702;DHT22;334;48.808;9.222;2023-04-15T02:23:57;9.70;1.00
702;DHT22;334;48.808;9.222;2023-04-15T02:24:59;9.60;1.00
702;DHT22;334;48.808;9.222;2023-04-15T02:26:01;9.60;1.00
702;DHT22;334;48.808;9.222;2023-04-15T02:27:03;9.60;1.00
702;DHT22;334;48.808;9.222;2023-04-15T02:28:05;9.50;1.00
702;DHT22;334;48.808;9.222;2023-04-15T02:29:07;9.50;1.00
702;DHT22;334;48.808;9.222;2023-04-15T02:30:09;9.50;1.00
702;DHT22;334;48.808;9.222;2023-04-15T02:31:11;9.40;1.00
702;DHT22;334;48.808;9.222;2023-04-15T02:32:13;9.40;1.00
702;DHT22;334;48.808;9.222;2023-04-15T02:33:15;9.40;1.00
702;DHT22;334;48.808;9.222;2023-04-15T02:34:16;9.40;1.00
702;DHT22;334;48.808;9.222;2023-04-15T02:35:18;9.40;1.00
702;DHT22;334;48.808;9.222;2023-04-15T02:36:20;9.40;1.00
702;DHT22;334;48.808;9.222;2023-04-15T02:37:22;9.40;1.00
702;DHT22;334;48.808;9.222;2023-04-15T02:38:25;9.40;1.00
702;DHT22;334;48.808;9.222;2023-04-15T02:39:27;9.40;1.00
702;DHT22;334;48.808;9.222;2023-04-15T02:40:28;9.40;1.00
702;DHT22;334;48.808;9.222;2023-04-15T02:41:30;9.30;1.00
702;DHT22;334;48.808;9.222;2023-04-15T02:42:32;9.30;1.00
702;DHT22;334;48.808;9.222;2023-04-15T02:43:34;9.30;1.00
702;DHT22;334;48.808;9.222;2023-04-15T02:44:36;9.40;1.00
702;DHT22;334;48.808;9.222;2023-04-15T02:45:38;9.40;1.00
702;DHT22;334;48.808;9.222;2023-04-15T02:46:40;9.40;1.00
702;DHT22;334;48.808;9.222;2023-04-15T02:47:41;9.40;1.00
702;DHT22;334;48.808;9.222;2023-04-15T02:48:44;9.40;1.00
702;DHT22;334;48.808;9.222;2023-04-15T02:49:46;9.40;1.00
702;DHT22;334;48.808;9.222;2023-04-15T02:50:48;9.40;1.00
702;DHT22;334;48.808;9.222;2023-04-15T02:51:50;9.40;1.00
702;DHT22;334;48.808;9.222;2023-04-15T02:52:52;9.40;1.00
702;DHT22;334;48.808;9.222;2023-04-15T02:53:54;9.40;1.00
702;DHT22;334;48.808;9.222;2023-04-15T02:54:55;9.40;1.00
702;DHT22;334;48.808;9.222;2023-04-15T02:56:01;9.30;1.00
702;DHT22;334;48.808;9.222;2023-04-15T02:57:04;9.30;1.00
702;DHT22;334;48.808;9.222;2023-04-15T02:58:07;9.30;1.00
702;DHT22;334;48.808;9.222;2023-04-15T02:59:09;9.30;1.00
702;DHT22;334;48.808;9.222;2023-04-15T03:00:11;9.30;1.00
702;DHT22;334;48.808;9.222;2023-04-15T03:01:13;9.20;1.00
702;DHT22;334;48.808;9.222;2023-04-15T03:02:15;9.20;1.00
702;DHT22;334;48.808;9.222;2023-04-15T03:03:17;9.20;1.00
702;DHT22;334;48.808;9.222;2023-04-15T03:04:19;9.10;1.00
702;DHT22;334;48.808;9.222;2023-04-15T03:05:21;9.10;1.00
702;DHT22;334;48.808;9.222;2023-04-15T03:06:26;9.10;1.00
702;DHT22;334;48.808;9.222;2023-04-15T03:07:27;9.10;1.00
702;DHT22;334;48.808;9.222;2023-04-15T03:08:29;9.10;1.00
702;DHT22;334;48.808;9.222;2023-04-15T03:09:31;9.10;1.00
702;DHT22;334;48.808;9.222;2023-04-15T03:10:35;9.10;1.00
702;DHT22;334;48.808;9.222;2023-04-15T03:11:38;9.10;1.00
702;DHT22;334;48.808;9.222;2023-04-15T03:12:41;9.20;1.00
702;DHT22;334;48.808;9.222;2023-04-15T03:13:42;9.20;1.00
702;DHT22;334;48.808;9.222;2023-04-15T03:14:44;9.20;1.00
702;DHT22;334;48.808;9.222;2023-04-15T03:15:46;9.20;1.00
702;DHT22;334;48.808;9.222;2023-04-15T03:16:49;9.20;1.00
702;DHT22;334;48.808;9.222;2023-04-15T03:17:52;9.20;1.00
702;DHT22;334;48.808;9.222;2023-04-15T03:18:54;9.20;1.00
702;DHT22;334;48.808;9.222;2023-04-15T03:19:56;9.20;1.00
702;DHT22;334;48.808;9.222;2023-04-15T03:20:58;9.20;1.00
702;DHT22;334;48.808;9.222;2023-04-15T03:22:00;9.20;1.00
702;DHT22;334;48.808;9.222;2023-04-15T03:23:02;9.20;1.00
702;DHT22;334;48.808;9.222;2023-04-15T03:24:04;9.20;1.00
702;DHT22;334;48.808;9.222;2023-04-15T03:25:06;9.10;1.00
702;DHT22;334;48.808;9.222;2023-04-15T03:26:08;9.10;1.00
702;DHT22;334;48.808;9.222;2023-04-15T03:27:11;9.10;1.00
702;DHT22;334;48.808;9.222;2023-04-15T03:28:13;9.10;1.00
702;DHT22;334;48.808;9.222;2023-04-15T03:29:15;9.10;1.00
702;DHT22;334;48.808;9.222;2023-04-15T03:30:17;9.10;1.00
702;DHT22;334;48.808;9.222;2023-04-15T03:31:18;9.10;1.00
702;DHT22;334;48.808;9.222;2023-04-15T03:32:20;9.10;1.00
702;DHT22;334;48.808;9.222;2023-04-15T03:33:22;9.10;1.00
702;DHT22;334;48.808;9.222;2023-04-15T03:34:24;9.10;1.00
702;DHT22;334;48.808;9.222;2023-04-15T03:35:26;9.20;1.00
702;DHT22;334;48.808;9.222;2023-04-15T03:36:28;9.20;1.00
702;DHT22;334;48.808;9.222;2023-04-15T03:37:32;9.10;1.00
702;DHT22;334;48.808;9.222;2023-04-15T03:38:34;9.10;1.00
702;DHT22;334;48.808;9.222;2023-04-15T03:39:36;9.10;1.00
702;DHT22;334;48.808;9.222;2023-04-15T03:40:39;9.20;1.00
702;DHT22;334;48.808;9.222;2023-04-15T03:41:42;9.20;1.00
702;DHT22;334;48.808;9.222;2023-04-15T03:42:43;9.10;1.00
702;DHT22;334;48.808;9.222;2023-04-15T03:43:45;9.10;1.00
702;DHT22;334;48.808;9.222;2023-04-15T03:44:48;9.10;1.00
702;DHT22;334;48.808;9.222;2023-04-15T03:45:49;9.20;1.00
702;DHT22;334;48.808;9.222;2023-04-15T03:46:51;9.20;1.00
702;DHT22;334;48.808;9.222;2023-04-15T03:47:53;9.10;1.00
702;DHT22;334;48.808;9.222;2023-04-15T03:48:56;9.10;1.00
702;DHT22;334;48.808;9.222;2023-04-15T03:49:58;9.10;1.00
702;DHT22;334;48.808;9.222;2023-04-15T03:50:59;9.10;1.00
702;DHT22;334;48.808;9.222;2023-04-15T03:52:02;9.10;1.00
702;DHT22;334;48.808;9.222;2023-04-15T03:53:03;9.00;1.00
702;DHT22;334;48.808;9.222;2023-04-15T03:54:05;9.00;1.00
702;DHT22;334;48.808;9.222;2023-04-15T03:55:07;8.90;1.00
702;DHT22;334;48.808;9.222;2023-04-15T03:56:10;8.90;1.00
702;DHT22;334;48.808;9.222;2023-04-15T03:57:12;8.90;1.00
702;DHT22;334;48.808;9.222;2023-04-15T03:58:13;8.90;1.00
702;DHT22;334;48.808;9.222;2023-04-15T03:59:15;8.90;1.00
702;DHT22;334;48.808;9.222;2023-04-15T04:00:17;8.90;1.00
702;DHT22;334;48.808;9.222;2023-04-15T04:01:20;8.90;1.00
702;DHT22;334;48.808;9.222;2023-04-15T04:02:21;8.90;1.00
702;DHT22;334;48.808;9.222;2023-04-15T04:03:24;8.90;1.00
702;DHT22;334;48.808;9.222;2023-04-15T04:04:26;9.00;1.00
702;DHT22;334;48.808;9.222;2023-04-15T04:05:28;8.90;1.00
702;DHT22;334;48.808;9.222;2023-04-15T04:06:30;8.90;1.00
702;DHT22;334;48.808;9.222;2023-04-15T04:07:32;9.00;1.00
702;DHT22;334;48.808;9.222;2023-04-15T04:08:33;9.00;1.00
702;DHT22;334;48.808;9.222;2023-04-15T04:09:35;9.00;1.00
702;DHT22;334;48.808;9.222;2023-04-15T04:10:40;9.00;1.00
702;DHT22;334;48.808;9.222;2023-04-15T04:11:42;9.00;1.00
702;DHT22;334;48.808;9.222;2023-04-15T04:12:44;9.00;1.00
702;DHT22;334;48.808;9.222;2023-04-15T04:13:46;9.00;1.00
702;DHT22;334;48.808;9.222;2023-04-15T04:14:48;9.00;1.00
702;DHT22;334;48.808;9.222;2023-04-15T04:15:49;9.00;1.00
702;DHT22;334;48.808;9.222;2023-04-15T04:16:58;9.00;1.00
702;DHT22;334;48.808;9.222;2023-04-15T04:18:08;9.00;1.00
702;DHT22;334;48.808;9.222;2023-04-15T04:19:10;9.00;1.00
702;DHT22;334;48.808;9.222;2023-04-15T04:20:12;9.00;1.00
702;DHT22;334;48.808;9.222;2023-04-15T04:21:14;9.00;1.00
702;DHT22;334;48.808;9.222;2023-04-15T04:22:16;9.00;1.00
702;DHT22;334;48.808;9.222;2023-04-15T04:23:18;9.00;1.00
702;DHT22;334;48.808;9.222;2023-04-15T04:24:20;9.00;1.00
702;DHT22;334;48.808;9.222;2023-04-15T04:25:22;9.00;1.00
702;DHT22;334;48.808;9.222;2023-04-15T04:26:24;9.00;1.00
702;DHT22;334;48.808;9.222;2023-04-15T04:27:26;9.00;1.00
702;DHT22;334;48.808;9.222;2023-04-15T04:28:28;9.00;1.00
702;DHT22;334;48.808;9.222;2023-04-15T04:29:30;9.00;1.00
702;DHT22;334;48.808;9.222;2023-04-15T04:30:32;9.00;1.00
702;DHT22;334;48.808;9.222;2023-04-15T04:31:33;9.00;1.00
702;DHT22;334;48.808;9.222;2023-04-15T04:32:35;9.00;1.00
702;DHT22;334;48.808;9.222;2023-04-15T04:33:37;8.90;1.00
702;DHT22;334;48.808;9.222;2023-04-15T04:34:39;9.00;1.00
702;DHT22;334;48.808;9.222;2023-04-15T04:35:41;9.00;1.00
702;DHT22;334;48.808;9.222;2023-04-15T04:36:42;9.00;1.00
702;DHT22;334;48.808;9.222;2023-04-15T04:37:44;9.00;1.00
702;DHT22;334;48.808;9.222;2023-04-15T04:38:46;8.90;1.00
702;DHT22;334;48.808;9.222;2023-04-15T04:39:48;8.90;1.00
702;DHT22;334;48.808;9.222;2023-04-15T04:40:50;8.90;1.00
702;DHT22;334;48.808;9.222;2023-04-15T04:41:51;8.90;1.00
702;DHT22;334;48.808;9.222;2023-04-15T04:42:53;8.80;1.00
702;DHT22;334;48.808;9.222;2023-04-15T04:43:55;8.80;1.00
702;DHT22;334;48.808;9.222;2023-04-15T04:44:57;8.70;1.00
702;DHT22;334;48.808;9.222;2023-04-15T04:45:58;8.70;1.00
702;DHT22;334;48.808;9.222;2023-04-15T04:47:00;8.60;1.00
702;DHT22;334;48.808;9.222;2023-04-15T04:48:02;8.60;1.00
702;DHT22;334;48.808;9.222;2023-04-15T04:49:09;8.50;1.00
702;DHT22;334;48.808;9.222;2023-04-15T04:50:11;8.50;1.00
702;DHT22;334;48.808;9.222;2023-04-15T04:51:12;8.40;1.00
702;DHT22;334;48.808;9.222;2023-04-15T04:52:14;8.40;1.00
702;DHT22;334;48.808;9.222;2023-04-15T04:53:16;8.30;1.00
702;DHT22;334;48.808;9.222;2023-04-15T04:54:18;8.30;1.00
702;DHT22;334;48.808;9.222;2023-04-15T04:55:20;8.20;1.00
702;DHT22;334;48.808;9.222;2023-04-15T04:56:21;8.20;1.00
702;DHT22;334;48.808;9.222;2023-04-15T04:57:23;8.20;1.00
702;DHT22;334;48.808;9.222;2023-04-15T04:58:25;8.20;1.00
702;DHT22;334;48.808;9.222;2023-04-15T04:59:27;8.10;1.00
702;DHT22;334;48.808;9.222;2023-04-15T05:00:29;8.20;1.00
702;DHT22;334;48.808;9.222;2023-04-15T05:01:31;8.10;1.00
702;DHT22;334;48.808;9.222;2023-04-15T05:02:33;8.20;1.00
702;DHT22;334;48.808;9.222;2023-04-15T05:03:35;8.10;1.00
702;DHT22;334;48.808;9.222;2023-04-15T05:04:38;8.10;1.00
702;DHT22;334;48.808;9.222;2023-04-15T05:05:40;8.10;1.00
702;DHT22;334;48.808;9.222;2023-04-15T05:06:42;8.00;1.00
702;DHT22;334;48.808;9.222;2023-04-15T05:07:45;8.00;1.00
702;DHT22;334;48.808;9.222;2023-04-15T05:08:48;7.90;1.00
702;DHT22;334;48.808;9.222;2023-04-15T05:09:49;7.90;1.00
702;DHT22;334;48.808;9.222;2023-04-15T05:10:52;7.90;1.00
702;DHT22;334;48.808;9.222;2023-04-15T05:11:55;7.80;1.00
702;DHT22;334;48.808;9.222;2023-04-15T05:12:57;7.80;1.00
702;DHT22;334;48.808;9.222;2023-04-15T05:13:59;7.80;1.00
702;DHT22;334;48.808;9.222;2023-04-15T05:15:03;7.70;1.00
702;DHT22;334;48.808;9.222;2023-04-15T05:16:05;7.70;1.00
702;DHT22;334;48.808;9.222;2023-04-15T05:17:08;7.70;1.00
702;DHT22;334;48.808;9.222;2023-04-15T05:18:10;7.70;1.00
702;DHT22;334;48.808;9.222;2023-04-15T05:19:12;7.70;1.00
702;DHT22;334;48.808;9.222;2023-04-15T05:20:13;7.70;1.00
702;DHT22;334;48.808;9.222;2023-04-15T05:21:16;7.70;1.00
702;DHT22;334;48.808;9.222;2023-04-15T05:22:17;7.70;1.00
702;DHT22;334;48.808;9.222;2023-04-15T05:23:19;7.70;1.00
702;DHT22;334;48.808;9.222;2023-04-15T05:24:21;7.70;1.00
702;DHT22;334;48.808;9.222;2023-04-15T05:25:23;7.70;1.00
702;DHT22;334;48.808;9.222;2023-04-15T05:26:25;7.70;1.00
702;DHT22;334;48.808;9.222;2023-04-15T05:27:28;7.70;1.00
702;DHT22;334;48.808;9.222;2023-04-15T05:28:29;7.70;1.00
702;DHT22;334;48.808;9.222;2023-04-15T05:29:31;7.70;1.00
702;DHT22;334;48.808;9.222;2023-04-15T05:30:33;7.60;1.00
702;DHT22;334;48.808;9.222;2023-04-15T05:31:35;7.60;1.00
702;DHT22;334;48.808;9.222;2023-04-15T05:32:37;7.60;1.00
702;DHT22;334;48.808;9.222;2023-04-15T05:33:39;7.60;1.00
702;DHT22;334;48.808;9.222;2023-04-15T05:34:41;7.60;1.00
702;DHT22;334;48.808;9.222;2023-04-15T05:35:42;7.60;1.00
702;DHT22;334;48.808;9.222;2023-04-15T05:36:44;7.70;1.00
702;DHT22;334;48.808;9.222;2023-04-15T05:37:46;7.70;1.00
702;DHT22;334;48.808;9.222;2023-04-15T05:38:48;7.70;1.00
702;DHT22;334;48.808;9.222;2023-04-15T05:39:49;7.70;1.00
702;DHT22;334;48.808;9.222;2023-04-15T05:40:51;7.70;1.00
702;DHT22;334;48.808;9.222;2023-04-15T05:41:53;7.70;1.00
702;DHT22;334;48.808;9.222;2023-04-15T05:42:55;7.70;1.00
702;DHT22;334;48.808;9.222;2023-04-15T05:43:57;7.60;1.00
702;DHT22;334;48.808;9.222;2023-04-15T05:44:58;7.60;1.00
702;DHT22;334;48.808;9.222;2023-04-15T05:46:00;7.60;1.00
702;DHT22;334;48.808;9.222;2023-04-15T05:47:02;7.60;1.00
702;DHT22;334;48.808;9.222;2023-04-15T05:48:04;7.60;1.00
702;DHT22;334;48.808;9.222;2023-04-15T05:49:05;7.70;1.00
702;DHT22;334;48.808;9.222;2023-04-15T05:50:07;7.60;1.00
702;DHT22;334;48.808;9.222;2023-04-15T05:51:10;7.60;1.00
702;DHT22;334;48.808;9.222;2023-04-15T05:52:12;7.60;1.00
702;DHT22;334;48.808;9.222;2023-04-15T05:53:14;7.60;1.00
702;DHT22;334;48.808;9.222;2023-04-15T05:54:16;7.60;1.00
702;DHT22;334;48.808;9.222;2023-04-15T05:55:20;7.60;1.00
702;DHT22;334;48.808;9.222;2023-04-15T05:56:22;7.50;1.00
702;DHT22;334;48.808;9.222;2023-04-15T05:57:24;7.50;1.00
702;DHT22;334;48.808;9.222;2023-04-15T05:58:26;7.50;1.00
702;DHT22;334;48.808;9.222;2023-04-15T05:59:28;7.50;1.00
702;DHT22;334;48.808;9.222;2023-04-15T06:00:29;7.50;1.00
702;DHT22;334;48.808;9.222;2023-04-15T06:01:32;7.50;1.00
702;DHT22;334;48.808;9.222;2023-04-15T06:02:34;7.50;1.00
702;DHT22;334;48.808;9.222;2023-04-15T06:03:37;7.60;1.00
702;DHT22;334;48.808;9.222;2023-04-15T06:04:39;7.60;1.00
702;DHT22;334;48.808;9.222;2023-04-15T06:05:41;7.60;1.00
702;DHT22;334;48.808;9.222;2023-04-15T06:06:45;7.70;1.00
702;DHT22;334;48.808;9.222;2023-04-15T06:07:47;7.80;1.00
702;DHT22;334;48.808;9.222;2023-04-15T06:08:50;7.80;1.00
702;DHT22;334;48.808;9.222;2023-04-15T06:09:52;7.90;1.00
702;DHT22;334;48.808;9.222;2023-04-15T06:10:54;7.90;1.00
702;DHT22;334;48.808;9.222;2023-04-15T06:11:56;8.00;1.00
702;DHT22;334;48.808;9.222;2023-04-15T06:12:59;8.00;1.00
702;DHT22;334;48.808;9.222;2023-04-15T06:14:01;8.10;1.00
702;DHT22;334;48.808;9.222;2023-04-15T06:15:04;8.10;1.00
702;DHT22;334;48.808;9.222;2023-04-15T06:16:07;8.20;1.00
702;DHT22;334;48.808;9.222;2023-04-15T06:17:10;8.10;1.00
702;DHT22;334;48.808;9.222;2023-04-15T06:18:12;8.20;1.00
702;DHT22;334;48.808;9.222;2023-04-15T06:19:14;8.30;1.00
702;DHT22;334;48.808;9.222;2023-04-15T06:20:16;8.40;1.00
702;DHT22;334;48.808;9.222;2023-04-15T06:21:18;8.40;1.00
702;DHT22;334;48.808;9.222;2023-04-15T06:22:21;8.50;1.00
702;DHT22;334;48.808;9.222;2023-04-15T06:23:24;8.60;1.00
702;DHT22;334;48.808;9.222;2023-04-15T06:24:28;8.70;1.00
702;DHT22;334;48.808;9.222;2023-04-15T06:25:30;8.80;1.00
702;DHT22;334;48.808;9.222;2023-04-15T06:26:32;8.80;1.00
702;DHT22;334;48.808;9.222;2023-04-15T06:27:34;8.90;1.00
702;DHT22;334;48.808;9.222;2023-04-15T06:28:36;8.90;1.00
702;DHT22;334;48.808;9.222;2023-04-15T06:29:38;8.90;1.00
702;DHT22;334;48.808;9.222;2023-04-15T06:30:39;8.90;1.00
702;DHT22;334;48.808;9.222;2023-04-15T06:31:41;8.90;1.00
702;DHT22;334;48.808;9.222;2023-04-15T06:32:43;8.90;1.00
702;DHT22;334;48.808;9.222;2023-04-15T06:33:45;8.90;1.00
702;DHT22;334;48.808;9.222;2023-04-15T06:34:47;8.90;1.00
702;DHT22;334;48.808;9.222;2023-04-15T06:35:49;9.00;1.00
702;DHT22;334;48.808;9.222;2023-04-15T06:36:51;9.00;1.00
702;DHT22;334;48.808;9.222;2023-04-15T06:37:55;9.00;1.00
702;DHT22;334;48.808;9.222;2023-04-15T06:38:57;9.00;1.00
702;DHT22;334;48.808;9.222;2023-04-15T06:39:59;9.00;1.00
702;DHT22;334;48.808;9.222;2023-04-15T06:41:03;9.00;1.00
702;DHT22;334;48.808;9.222;2023-04-15T06:42:05;9.10;1.00
702;DHT22;334;48.808;9.222;2023-04-15T06:43:08;9.10;1.00
702;DHT22;334;48.808;9.222;2023-04-15T06:44:10;9.10;1.00
702;DHT22;334;48.808;9.222;2023-04-15T06:45:14;9.10;1.00
702;DHT22;334;48.808;9.222;2023-04-15T06:46:16;9.10;1.00
702;DHT22;334;48.808;9.222;2023-04-15T06:47:18;9.10;1.00
702;DHT22;334;48.808;9.222;2023-04-15T06:48:20;9.10;1.00
702;DHT22;334;48.808;9.222;2023-04-15T06:49:22;9.10;1.00
702;DHT22;334;48.808;9.222;2023-04-15T06:50:24;9.10;1.00
702;DHT22;334;48.808;9.222;2023-04-15T06:51:26;9.20;1.00
702;DHT22;334;48.808;9.222;2023-04-15T06:52:28;9.20;1.00
702;DHT22;334;48.808;9.222;2023-04-15T06:53:30;9.20;1.00
702;DHT22;334;48.808;9.222;2023-04-15T06:54:32;9.20;1.00
702;DHT22;334;48.808;9.222;2023-04-15T06:55:33;9.20;1.00
702;DHT22;334;48.808;9.222;2023-04-15T06:56:36;9.30;1.00
702;DHT22;334;48.808;9.222;2023-04-15T06:57:38;9.30;1.00
702;DHT22;334;48.808;9.222;2023-04-15T06:58:40;9.40;1.00
702;DHT22;334;48.808;9.222;2023-04-15T06:59:42;9.40;1.00
702;DHT22;334;48.808;9.222;2023-04-15T07:00:44;9.40;1.00
702;DHT22;334;48.808;9.222;2023-04-15T07:01:46;9.40;1.00
702;DHT22;334;48.808;9.222;2023-04-15T07:02:48;9.40;1.00
702;DHT22;334;48.808;9.222;2023-04-15T07:03:50;9.40;1.00
702;DHT22;334;48.808;9.222;2023-04-15T07:04:52;9.40;1.00
702;DHT22;334;48.808;9.222;2023-04-15T07:05:54;9.40;1.00
702;DHT22;334;48.808;9.222;2023-04-15T07:06:55;9.40;1.00
702;DHT22;334;48.808;9.222;2023-04-15T07:07:58;9.40;1.00
702;DHT22;334;48.808;9.222;2023-04-15T07:08:59;9.40;1.00
702;DHT22;334;48.808;9.222;2023-04-15T07:10:02;9.50;1.00
702;DHT22;334;48.808;9.222;2023-04-15T07:11:05;9.50;1.00
702;DHT22;334;48.808;9.222;2023-04-15T07:12:07;9.50;1.00